createdAt,value
2024-03-14T00:01:32.540Z,99.90
2024-03-14T00:03:59.597Z,99.90
2024-03-14T00:06:27.146Z,99.90
2024-03-14T00:08:54.576Z,99.90
2024-03-14T00:11:22.687Z,99.90
2024-03-14T00:13:49.580Z,99.90
2024-03-14T00:16:16.537Z,99.90
2024-03-14T00:18:45.447Z,99.90
2024-03-14T00:21:13.534Z,99.90
2024-03-14T00:23:40.473Z,99.90
2024-03-14T00:26:10.282Z,99.90
2024-03-14T00:28:37.773Z,99.90
2024-03-14T00:31:05.314Z,99.90
2024-03-14T00:33:32.375Z,99.90
2024-03-14T00:36:00.116Z,99.90
2024-03-14T00:38:27.059Z,99.90
2024-03-14T00:40:54.499Z,99.90
2024-03-14T00:43:22.580Z,99.90
2024-03-14T00:45:49.514Z,99.90
2024-03-14T00:48:17.223Z,99.90
2024-03-14T00:50:45.302Z,99.90
2024-03-14T00:53:12.391Z,99.90
2024-03-14T00:55:39.313Z,99.90
2024-03-14T00:58:07.851Z,99.90
2024-03-14T01:00:34.809Z,99.90
2024-03-14T01:03:01.828Z,99.90
2024-03-14T01:05:28.654Z,99.90
2024-03-14T01:07:55.563Z,99.90
2024-03-14T01:10:22.364Z,99.90
2024-03-14T01:12:49.548Z,99.90
2024-03-14T01:15:18.983Z,99.90
2024-03-14T01:17:45.983Z,99.90
2024-03-14T01:20:12.929Z,99.90
2024-03-14T01:22:39.813Z,99.90
2024-03-14T01:25:07.178Z,99.90
2024-03-14T01:27:34.851Z,99.90
2024-03-14T01:30:02.373Z,99.90
2024-03-14T01:32:29.641Z,99.90
2024-03-14T01:34:56.556Z,99.90
2024-03-14T01:37:23.414Z,99.90
2024-03-14T01:39:53.031Z,99.90
2024-03-14T01:42:19.960Z,99.90
2024-03-14T01:45:10.410Z,99.90
2024-03-14T01:47:38.529Z,99.90
2024-03-14T01:50:07.568Z,99.90
2024-03-14T01:52:35.374Z,99.90
2024-03-14T01:55:03.707Z,99.90
2024-03-14T01:57:32.157Z,99.90
2024-03-14T02:00:00.193Z,99.90
2024-03-14T02:02:27.767Z,99.90
2024-03-14T02:05:12.120Z,99.90
2024-03-14T02:07:39.705Z,99.90
2024-03-14T02:10:07.758Z,99.90
2024-03-14T02:12:34.837Z,99.90
2024-03-14T02:15:03.918Z,99.90
2024-03-14T02:17:31.253Z,99.90
2024-03-14T02:19:58.138Z,99.90
2024-03-14T02:22:25.238Z,99.90
2024-03-14T02:24:52.573Z,99.90
2024-03-14T02:27:21.195Z,99.90
2024-03-14T02:29:48.229Z,99.90
2024-03-14T02:32:15.492Z,99.90
2024-03-14T02:34:42.360Z,99.90
2024-03-14T02:37:09.382Z,99.90
2024-03-14T02:39:36.210Z,99.90
2024-03-14T02:42:03.341Z,99.90
2024-03-14T02:44:30.212Z,99.90
2024-03-14T02:46:57.711Z,99.90
2024-03-14T02:49:24.885Z,99.90
2024-03-14T02:51:51.744Z,99.90
2024-03-14T02:54:18.687Z,99.90
2024-03-14T02:56:48.646Z,99.90
2024-03-14T02:59:15.754Z,99.90
2024-03-14T03:01:42.732Z,99.90
2024-03-14T03:04:13.012Z,99.90
2024-03-14T03:06:49.811Z,99.90
2024-03-14T03:09:16.747Z,99.90
2024-03-14T03:11:43.638Z,99.90
2024-03-14T03:14:10.485Z,99.90
2024-03-14T03:16:38.512Z,99.90
2024-03-14T03:19:10.788Z,99.90
2024-03-14T03:21:41.333Z,99.90
2024-03-14T03:24:09.066Z,99.90
2024-03-14T03:26:36.496Z,99.90
2024-03-14T03:29:03.548Z,99.90
2024-03-14T03:31:31.036Z,99.90
2024-03-14T03:33:57.961Z,99.90
2024-03-14T03:36:25.105Z,99.90
2024-03-14T03:38:52.456Z,99.90
2024-03-14T03:41:24.459Z,99.90
2024-03-14T03:43:51.353Z,99.90
2024-03-14T03:46:18.190Z,99.90
2024-03-14T03:48:46.020Z,99.90
2024-03-14T03:51:14.542Z,99.90
2024-03-14T03:53:41.409Z,99.90
2024-03-14T03:56:08.732Z,99.90
2024-03-14T03:58:35.534Z,99.90
2024-03-14T04:01:08.389Z,99.90
2024-03-14T04:03:35.424Z,99.90
2024-03-14T04:06:03.022Z,99.90
2024-03-14T04:08:31.747Z,99.90
2024-03-14T04:10:58.668Z,99.90
2024-03-14T04:13:27.852Z,99.90
2024-03-14T04:15:54.653Z,99.90
2024-03-14T04:18:21.550Z,99.90
2024-03-14T04:20:48.411Z,99.90
2024-03-14T04:23:16.690Z,99.90
2024-03-14T04:25:43.482Z,99.90
2024-03-14T04:28:10.249Z,99.90
2024-03-14T04:30:38.349Z,99.90
2024-03-14T04:33:05.750Z,99.90
2024-03-14T04:35:34.934Z,99.90
2024-03-14T04:38:02.049Z,99.90
2024-03-14T04:40:28.825Z,99.90
2024-03-14T04:42:56.607Z,99.90
2024-03-14T04:45:24.013Z,99.90
2024-03-14T04:47:51.357Z,99.90
2024-03-14T04:50:20.948Z,99.90
2024-03-14T04:52:49.403Z,99.90
2024-03-14T04:55:16.181Z,99.90
2024-03-14T04:57:44.846Z,99.90
2024-03-14T05:00:22.495Z,99.90
2024-03-14T05:02:51.253Z,99.90
2024-03-14T05:05:19.000Z,99.90
2024-03-14T05:07:45.893Z,99.90
2024-03-14T05:10:15.588Z,99.90
2024-03-14T05:12:43.977Z,99.90
2024-03-14T05:15:11.248Z,99.90
2024-03-14T05:17:38.134Z,99.90
2024-03-14T05:20:08.240Z,99.90
2024-03-14T05:22:35.059Z,99.90
2024-03-14T05:25:07.607Z,99.90
2024-03-14T05:27:34.730Z,99.90
2024-03-14T05:30:02.476Z,99.90
2024-03-14T05:32:29.914Z,99.90
2024-03-14T05:35:00.625Z,99.90
2024-03-14T05:37:28.239Z,99.90
2024-03-14T05:39:55.166Z,99.90
2024-03-14T05:42:22.067Z,99.90
2024-03-14T05:44:49.657Z,99.90
2024-03-14T05:47:19.429Z,99.90
2024-03-14T05:49:46.234Z,99.90
2024-03-14T05:52:14.178Z,99.90
2024-03-14T05:54:41.101Z,99.90
2024-03-14T05:57:08.109Z,99.90
2024-03-14T05:59:37.980Z,99.90
2024-03-14T06:02:05.468Z,99.90
2024-03-14T06:04:32.421Z,99.90
2024-03-14T06:06:59.744Z,99.90
2024-03-14T06:09:43.257Z,99.90
2024-03-14T06:12:10.920Z,99.90
2024-03-14T06:14:40.396Z,99.90
2024-03-14T06:17:07.515Z,99.90
2024-03-14T06:19:34.708Z,99.90
2024-03-14T06:22:01.553Z,99.90
2024-03-14T06:24:29.501Z,99.90
2024-03-14T06:26:56.473Z,99.90
2024-03-14T06:29:24.452Z,99.90
2024-03-14T06:31:51.786Z,99.90
2024-03-14T06:34:18.973Z,99.90
2024-03-14T06:36:46.154Z,99.90
2024-03-14T06:39:13.190Z,99.90
2024-03-14T06:41:40.091Z,99.90
2024-03-14T06:44:08.382Z,99.90
2024-03-14T06:46:35.830Z,99.90
2024-03-14T06:49:03.625Z,99.90
2024-03-14T06:51:30.985Z,99.90
2024-03-14T06:53:59.665Z,99.90
2024-03-14T06:56:28.316Z,99.90
2024-03-14T06:58:55.424Z,99.90
2024-03-14T07:01:22.781Z,99.90
2024-03-14T07:03:49.773Z,99.90
2024-03-14T07:06:16.950Z,99.90
2024-03-14T07:08:44.307Z,99.90
2024-03-14T07:11:13.971Z,99.90
2024-03-14T07:13:41.843Z,99.90
2024-03-14T07:16:11.632Z,99.90
2024-03-14T07:18:39.660Z,99.90
2024-03-14T07:21:06.727Z,99.90
2024-03-14T07:23:34.782Z,99.90
2024-03-14T07:26:06.500Z,99.90
2024-03-14T07:28:33.444Z,99.90
2024-03-14T07:31:00.721Z,99.90
2024-03-14T07:33:27.823Z,99.90
2024-03-14T07:35:56.067Z,99.90
2024-03-14T07:38:29.007Z,99.90
2024-03-14T07:40:56.738Z,99.90
2024-03-14T07:43:24.125Z,99.90
2024-03-14T07:45:51.354Z,99.90
2024-03-14T07:48:19.643Z,99.90
2024-03-14T07:50:47.211Z,99.90
2024-03-14T07:53:14.266Z,99.90
2024-03-14T07:55:41.377Z,99.90
2024-03-14T07:58:09.603Z,99.90
2024-03-14T08:00:38.287Z,99.90
2024-03-14T08:03:05.799Z,99.90
2024-03-14T08:05:34.626Z,99.90
2024-03-14T08:08:14.582Z,99.90
2024-03-14T08:10:48.482Z,99.90
2024-03-14T08:13:22.223Z,99.90
2024-03-14T08:16:00.592Z,99.90
2024-03-14T08:18:27.704Z,99.90
2024-03-14T08:20:58.745Z,99.90
2024-03-14T08:23:27.228Z,99.90
2024-03-14T08:25:54.251Z,99.90
2024-03-14T08:28:21.361Z,99.90
2024-03-14T08:30:48.268Z,99.90
2024-03-14T08:33:15.445Z,99.90
2024-03-14T08:35:43.905Z,99.90
2024-03-14T08:38:14.997Z,99.90
2024-03-14T08:40:43.569Z,99.90
2024-03-14T08:43:12.907Z,99.90
2024-03-14T08:45:40.521Z,99.90
2024-03-14T08:48:10.904Z,99.90
2024-03-14T08:50:41.962Z,99.90
2024-03-14T08:53:14.107Z,99.90
2024-03-14T08:55:46.499Z,99.90
2024-03-14T08:58:13.834Z,99.90
2024-03-14T09:00:41.010Z,99.90
2024-03-14T09:03:08.119Z,99.90
2024-03-14T09:05:35.455Z,99.90
2024-03-14T09:08:02.310Z,99.90
2024-03-14T09:10:29.265Z,99.90
2024-03-14T09:12:56.766Z,99.90
2024-03-14T09:15:25.324Z,99.90
2024-03-14T09:17:52.989Z,99.90
2024-03-14T09:20:22.715Z,99.90
2024-03-14T09:22:56.787Z,99.90
2024-03-14T09:25:25.245Z,99.90
2024-03-14T09:27:55.195Z,99.90
2024-03-14T09:30:25.563Z,99.90
2024-03-14T09:32:54.517Z,99.90
2024-03-14T09:35:28.566Z,99.90
2024-03-14T09:37:56.709Z,99.90
2024-03-14T09:40:25.081Z,99.90
2024-03-14T09:42:58.615Z,99.90
2024-03-14T09:45:26.600Z,99.90
2024-03-14T09:47:57.697Z,99.90
2024-03-14T09:50:28.286Z,99.90
2024-03-14T09:52:56.524Z,99.90
2024-03-14T09:55:25.030Z,99.90
2024-03-14T09:57:56.979Z,99.90
2024-03-14T10:00:27.000Z,99.90
2024-03-14T10:02:54.638Z,99.90
2024-03-14T10:05:22.953Z,99.90
2024-03-14T10:07:50.815Z,99.90
2024-03-14T10:10:18.058Z,99.90
2024-03-14T10:12:55.809Z,99.90
2024-03-14T10:15:23.768Z,99.90
2024-03-14T10:17:54.361Z,99.90
2024-03-14T10:20:21.850Z,99.90
2024-03-14T10:22:52.160Z,99.90
2024-03-14T10:25:25.282Z,99.90
2024-03-14T10:28:05.220Z,99.90
2024-03-14T10:30:38.434Z,99.90
2024-03-14T10:33:09.453Z,99.90
2024-03-14T10:35:38.864Z,99.90
2024-03-14T10:38:12.551Z,99.90
2024-03-14T10:40:42.858Z,99.90
2024-03-14T10:43:11.904Z,99.90
2024-03-14T10:45:39.509Z,99.90
2024-03-14T10:48:09.104Z,99.90
2024-03-14T10:50:38.109Z,99.90
2024-03-14T10:53:06.781Z,99.90
2024-03-14T10:55:35.449Z,99.90
2024-03-14T10:58:06.518Z,99.90
2024-03-14T11:00:35.825Z,99.90
2024-03-14T11:03:05.153Z,99.90
2024-03-14T11:05:33.164Z,99.90
2024-03-14T11:08:04.639Z,99.90
2024-03-14T11:10:33.305Z,99.90
2024-03-14T11:13:06.731Z,99.90
2024-03-14T11:15:39.426Z,99.90
2024-03-14T11:18:09.293Z,99.90
2024-03-14T11:20:37.373Z,99.90
2024-03-14T11:23:13.342Z,99.90
2024-03-14T11:25:44.325Z,99.90
2024-03-14T11:28:13.798Z,99.90
2024-03-14T11:30:40.682Z,99.90
2024-03-14T11:33:08.882Z,99.90
2024-03-14T11:35:41.082Z,99.90
2024-03-14T11:38:23.257Z,99.90
2024-03-14T11:40:53.682Z,99.90
2024-03-14T11:43:24.677Z,99.70
2024-03-14T11:45:55.805Z,99.20
2024-03-14T11:48:25.414Z,99.90
2024-03-14T11:50:55.574Z,99.80
2024-03-14T11:53:22.827Z,99.90
2024-03-14T11:55:58.298Z,99.80
2024-03-14T11:58:30.008Z,99.90
2024-03-14T12:00:57.541Z,99.90
2024-03-14T12:03:24.810Z,99.90
2024-03-14T12:05:54.012Z,99.90
2024-03-14T12:08:21.753Z,99.90
2024-03-14T12:10:56.482Z,99.90
2024-03-14T12:13:28.035Z,99.90
2024-03-14T12:16:03.514Z,99.90
2024-03-14T12:18:31.032Z,99.90
2024-03-14T12:20:59.829Z,99.90
2024-03-14T12:23:28.354Z,99.90
2024-03-14T12:26:02.615Z,99.90
2024-03-14T12:28:33.235Z,99.90
2024-03-14T12:31:02.497Z,99.90
2024-03-14T12:33:29.931Z,99.90
2024-03-14T12:35:57.538Z,99.90
2024-03-14T12:38:25.064Z,99.90
2024-03-14T12:40:59.098Z,99.90
2024-03-14T12:43:32.380Z,99.90
2024-03-14T12:46:02.271Z,99.90
2024-03-14T12:48:30.173Z,99.90
2024-03-14T12:51:11.041Z,99.90
2024-03-14T12:53:38.042Z,99.90
2024-03-14T12:56:08.045Z,99.10
2024-03-14T12:58:35.648Z,99.90
2024-03-14T13:01:02.648Z,99.30
2024-03-14T13:03:29.768Z,99.90
2024-03-14T13:05:58.897Z,99.30
2024-03-14T13:08:26.689Z,96.70
2024-03-14T13:11:12.977Z,96.00
2024-03-14T13:13:39.972Z,97.60
2024-03-14T13:16:33.166Z,97.30
2024-03-14T13:19:01.394Z,96.40
2024-03-14T13:21:28.283Z,96.00
2024-03-14T13:23:55.453Z,94.70
2024-03-14T13:26:24.823Z,94.20
2024-03-14T13:28:53.170Z,95.60
2024-03-14T13:31:21.902Z,93.60
2024-03-14T13:33:48.856Z,94.00
2024-03-14T13:36:17.547Z,95.00
2024-03-14T13:38:45.022Z,93.70
2024-03-14T13:41:14.052Z,95.20
2024-03-14T13:43:41.186Z,95.10
2024-03-14T13:46:09.467Z,91.90
2024-03-14T13:48:37.618Z,91.90
2024-03-14T13:51:08.704Z,92.70
2024-03-14T13:53:35.938Z,91.70
2024-03-14T13:56:02.844Z,94.40
2024-03-14T13:58:37.011Z,91.60
2024-03-14T14:01:20.374Z,92.10
2024-03-14T14:03:48.016Z,91.90
2024-03-14T14:06:18.192Z,94.30
2024-03-14T14:08:46.042Z,92.50
2024-03-14T14:11:14.200Z,93.40
2024-03-14T14:13:41.833Z,93.10
2024-03-14T14:16:12.387Z,93.60
2024-03-14T14:18:40.378Z,94.10
2024-03-14T14:21:07.436Z,92.20
2024-03-14T14:23:34.400Z,92.10
2024-03-14T14:26:02.379Z,91.90
2024-03-14T14:28:29.235Z,92.00
2024-03-14T14:30:56.289Z,92.00
2024-03-14T14:33:25.939Z,91.90
2024-03-14T14:35:53.775Z,92.50
2024-03-14T14:38:20.758Z,93.30
2024-03-14T14:40:50.678Z,93.20
2024-03-14T14:43:17.999Z,93.40
2024-03-14T14:45:45.007Z,94.00
2024-03-14T14:48:11.988Z,94.90
2024-03-14T14:50:40.293Z,94.40
2024-03-14T14:53:07.557Z,93.90
2024-03-14T14:55:34.485Z,94.30
2024-03-14T14:58:03.401Z,94.80
2024-03-14T15:00:30.411Z,96.70
2024-03-14T15:02:57.465Z,95.60
2024-03-14T15:05:24.431Z,96.20
2024-03-14T15:07:51.780Z,97.20
2024-03-14T15:10:19.539Z,96.50
2024-03-14T15:12:53.979Z,95.90
2024-03-14T15:15:26.468Z,96.60
2024-03-14T15:17:54.538Z,96.40
2024-03-14T15:20:24.867Z,97.00
2024-03-14T15:22:54.081Z,97.80
2024-03-14T15:25:22.545Z,97.00
2024-03-14T15:27:50.077Z,97.10
2024-03-14T15:30:18.162Z,97.10
2024-03-14T15:32:46.673Z,96.70
2024-03-14T15:35:15.964Z,97.20
2024-03-14T15:37:44.036Z,97.60
2024-03-14T15:40:14.549Z,97.70
2024-03-14T15:42:41.765Z,98.20
2024-03-14T15:45:10.524Z,98.10
2024-03-14T15:47:38.137Z,98.50
2024-03-14T15:50:09.051Z,99.20
2024-03-14T15:52:36.093Z,99.90
2024-03-14T15:55:06.516Z,99.90
2024-03-14T15:57:35.264Z,99.90
2024-03-14T16:00:09.858Z,99.90
2024-03-14T16:02:44.449Z,99.90
2024-03-14T16:05:16.448Z,99.90
2024-03-14T16:07:44.359Z,99.90
2024-03-14T16:10:11.540Z,99.90
2024-03-14T16:12:39.309Z,99.90
2024-03-14T16:15:12.998Z,99.90
2024-03-14T16:17:40.487Z,99.90
2024-03-14T16:20:36.045Z,99.90
2024-03-14T16:23:05.023Z,99.90
2024-03-14T16:25:36.153Z,99.90
2024-03-14T16:28:04.539Z,99.90
2024-03-14T16:30:31.999Z,99.90
2024-03-14T16:32:59.243Z,99.90
2024-03-14T16:35:36.662Z,99.90
2024-03-14T16:38:04.069Z,99.90
2024-03-14T16:40:32.815Z,99.90
2024-03-14T16:43:00.274Z,99.90
2024-03-14T16:45:30.965Z,99.90
2024-03-14T16:48:02.128Z,99.90
2024-03-14T16:50:29.550Z,99.90
2024-03-14T16:52:56.787Z,99.90
2024-03-14T16:55:23.826Z,99.90
2024-03-14T16:57:50.759Z,99.90
2024-03-14T17:00:23.458Z,99.90
2024-03-14T17:02:50.726Z,99.90
2024-03-14T17:05:21.039Z,99.90
2024-03-14T17:07:48.518Z,99.90
2024-03-14T17:10:17.652Z,99.90
2024-03-14T17:12:45.449Z,99.90
2024-03-14T17:15:12.697Z,99.90
2024-03-14T17:17:39.600Z,99.90
2024-03-14T17:20:13.588Z,99.90
2024-03-14T17:22:43.509Z,99.90
2024-03-14T17:25:14.021Z,99.90
2024-03-14T17:27:41.787Z,99.90
2024-03-14T17:30:10.020Z,99.90
2024-03-14T17:32:38.146Z,99.90
2024-03-14T17:35:09.218Z,99.90
2024-03-14T17:37:38.734Z,99.90
2024-03-14T17:40:12.277Z,99.90
2024-03-14T17:42:44.146Z,99.90
2024-03-14T17:45:19.090Z,99.90
2024-03-14T17:47:47.842Z,99.90
2024-03-14T17:50:15.986Z,99.90
2024-03-14T17:52:46.356Z,99.90
2024-03-14T17:55:14.773Z,99.90
2024-03-14T17:57:48.053Z,99.90
2024-03-14T18:00:16.769Z,99.90
2024-03-14T18:02:44.375Z,99.90
2024-03-14T18:05:14.012Z,99.90
2024-03-14T18:07:48.123Z,99.90
2024-03-14T18:10:15.556Z,99.90
2024-03-14T18:12:44.327Z,99.90
2024-03-14T18:15:14.502Z,99.90
2024-03-14T18:17:42.761Z,99.90
2024-03-14T18:20:10.597Z,99.90
2024-03-14T18:22:47.155Z,99.90
2024-03-14T18:25:18.792Z,99.90
2024-03-14T18:27:49.446Z,99.90
2024-03-14T18:30:20.218Z,99.90
2024-03-14T18:32:48.795Z,99.90
2024-03-14T18:35:20.886Z,99.90
2024-03-14T18:37:50.884Z,99.90
2024-03-14T18:40:20.251Z,99.90
2024-03-14T18:42:49.030Z,99.90
2024-03-14T18:45:18.551Z,99.90
2024-03-14T18:47:46.321Z,99.90
2024-03-14T18:50:13.500Z,99.90
2024-03-14T18:52:41.253Z,99.90
2024-03-14T18:55:10.434Z,99.90
2024-03-14T18:57:37.829Z,99.90
2024-03-14T19:00:08.046Z,99.90
2024-03-14T19:02:35.335Z,99.90
2024-03-14T19:05:02.651Z,99.90
2024-03-14T19:07:29.614Z,99.90
2024-03-14T19:09:56.409Z,99.90
2024-03-14T19:12:23.882Z,99.90
2024-03-14T19:14:51.915Z,99.90
2024-03-14T19:17:22.568Z,99.90
2024-03-14T19:19:52.212Z,99.90
2024-03-14T19:22:19.766Z,99.90
2024-03-14T19:24:46.969Z,99.90
2024-03-14T19:27:14.012Z,99.90
2024-03-14T19:29:41.119Z,99.90
2024-03-14T19:32:08.165Z,99.90
2024-03-14T19:34:35.581Z,99.90
2024-03-14T19:37:04.879Z,99.90
2024-03-14T19:39:33.891Z,99.90
2024-03-14T19:42:01.950Z,99.90
2024-03-14T19:44:30.308Z,99.90
2024-03-14T19:46:58.371Z,99.90
2024-03-14T19:49:25.823Z,99.90
2024-03-14T19:51:54.907Z,99.90
2024-03-14T19:54:23.278Z,99.90
2024-03-14T19:56:50.148Z,99.90
2024-03-14T19:59:17.194Z,99.90
2024-03-14T20:01:44.623Z,99.90
2024-03-14T20:04:11.494Z,99.90
2024-03-14T20:06:38.658Z,99.90
2024-03-14T20:09:07.514Z,99.90
2024-03-14T20:11:35.441Z,99.90
2024-03-14T20:14:02.835Z,99.90
2024-03-14T20:16:31.018Z,99.90
2024-03-14T20:18:58.676Z,99.90
2024-03-14T20:21:32.167Z,99.90
2024-03-14T20:23:58.985Z,99.90
2024-03-14T20:26:25.871Z,99.90
2024-03-14T20:28:52.785Z,99.90
2024-03-14T20:31:19.937Z,99.90
2024-03-14T20:33:47.334Z,99.90
2024-03-14T20:36:16.175Z,99.90
2024-03-14T20:38:43.554Z,99.90
2024-03-14T20:41:22.734Z,99.90
2024-03-14T20:43:54.237Z,99.90
2024-03-14T20:46:21.485Z,99.90
2024-03-14T20:48:51.169Z,99.90
2024-03-14T20:51:19.302Z,99.90
2024-03-14T20:53:46.905Z,99.90
2024-03-14T20:56:38.556Z,99.90
2024-03-14T20:59:07.758Z,99.90
2024-03-14T21:01:34.609Z,99.90
2024-03-14T21:04:01.501Z,99.90
2024-03-14T21:06:28.304Z,99.90
2024-03-14T21:09:01.624Z,99.90
2024-03-14T21:11:29.294Z,99.90
2024-03-14T21:13:57.818Z,99.90
2024-03-14T21:16:26.493Z,99.90
2024-03-14T21:18:53.562Z,99.90
2024-03-14T21:21:21.860Z,99.90
2024-03-14T21:23:49.140Z,99.90
2024-03-14T21:26:16.419Z,99.90
2024-03-14T21:28:43.709Z,99.90
2024-03-14T21:31:10.503Z,99.90
2024-03-14T21:33:38.294Z,99.90
2024-03-14T21:36:06.298Z,99.90
2024-03-14T21:38:36.149Z,99.90
2024-03-14T21:41:03.837Z,99.90
2024-03-14T21:43:30.831Z,99.90
2024-03-14T21:45:57.907Z,99.90
2024-03-14T21:48:25.085Z,99.90
2024-03-14T21:50:52.259Z,99.90
2024-03-14T21:53:19.821Z,99.90
2024-03-14T21:55:46.706Z,99.90
2024-03-14T21:58:13.870Z,99.90
2024-03-14T22:00:40.908Z,99.90
2024-03-14T22:03:08.645Z,99.90
2024-03-14T22:05:35.793Z,99.90
2024-03-14T22:08:05.533Z,99.90
2024-03-14T22:10:32.540Z,99.90
2024-03-14T22:12:59.617Z,99.90
2024-03-14T22:15:26.881Z,99.90
2024-03-14T22:17:53.979Z,99.90
2024-03-14T22:20:21.947Z,99.90
2024-03-14T22:22:49.268Z,99.90
2024-03-14T22:25:17.041Z,99.90
2024-03-14T22:27:44.392Z,99.90
2024-03-14T22:30:11.988Z,99.90
2024-03-14T22:32:39.086Z,99.90
2024-03-14T22:35:06.307Z,99.90
2024-03-14T22:37:33.219Z,99.90
2024-03-14T22:40:00.341Z,99.90
2024-03-14T22:42:27.537Z,99.90
2024-03-14T22:44:54.879Z,99.90
2024-03-14T22:47:21.722Z,99.90
2024-03-14T22:49:48.571Z,99.90
2024-03-14T22:52:15.656Z,99.90
2024-03-14T22:54:43.024Z,99.90
2024-03-14T22:57:10.138Z,99.90
2024-03-14T22:59:38.032Z,99.90
2024-03-14T23:02:05.419Z,99.90
2024-03-14T23:04:34.150Z,99.90
2024-03-14T23:07:02.118Z,99.90
2024-03-14T23:09:31.206Z,99.90
2024-03-14T23:11:58.674Z,99.90
2024-03-14T23:14:25.688Z,99.90
2024-03-14T23:16:53.235Z,99.90
2024-03-14T23:19:20.119Z,99.90
2024-03-14T23:21:49.419Z,99.90
2024-03-14T23:24:18.825Z,99.90
2024-03-14T23:26:46.173Z,99.90
2024-03-14T23:29:13.264Z,99.90
2024-03-14T23:31:41.509Z,99.90
2024-03-14T23:34:08.765Z,99.90
2024-03-14T23:36:37.631Z,99.90
2024-03-14T23:39:06.361Z,99.90
2024-03-14T23:41:34.437Z,99.90
2024-03-14T23:44:01.594Z,99.90
2024-03-14T23:46:28.480Z,99.90
2024-03-14T23:48:55.454Z,99.90
2024-03-14T23:51:24.236Z,99.90
2024-03-14T23:53:51.916Z,99.90
2024-03-14T23:56:19.420Z,99.90
2024-03-14T23:58:46.518Z,99.90
